Time;durP1;ratioP1;P1;durP2;ratioP2;P2;SDS_P1;SDS_P2;PMS_P1;PMS_P2;Temp;Humidity;BMP_temperature;BMP_pressure;BME280_temperature;BME280_humidity;BME280_pressure;Samples;Min_cycle;Max_cycle;Signal;HPM_P1;HPM_P2
2021/07/25 00:00:37;;;;;;;16.60;11.53;;;17.90;99.80;;;;;;6079745;23;20447;-88
2021/07/25 00:03:05;;;;;;;17.90;12.50;;;18.00;99.80;;;;;;6125165;23;20439;-87
2021/07/25 00:05:35;;;;;;;15.73;12.03;;;17.90;99.80;;;;;;6115710;23;20458;-88
2021/07/25 00:08:04;;;;;;;16.90;12.63;;;17.90;99.80;;;;;;6117788;23;20442;-88
2021/07/25 00:10:32;;;;;;;14.53;10.40;;;17.90;99.80;;;;;;6114193;23;20449;-88
2021/07/25 00:13:00;;;;;;;14.13;11.47;;;17.90;99.80;;;;;;6106789;23;20439;-87
2021/07/25 00:15:27;;;;;;;16.20;11.83;;;17.90;99.80;;;;;;6106370;23;20439;-88
2021/07/25 00:17:55;;;;;;;15.73;12.10;;;17.90;99.80;;;;;;6114798;23;21064;-88
2021/07/25 00:20:23;;;;;;;15.53;12.30;;;17.80;99.80;;;;;;6116222;23;20439;-88
2021/07/25 00:22:53;;;;;;;14.03;10.00;;;17.90;99.80;;;;;;6109376;23;20441;-88
2021/07/25 00:25:21;;;;;;;16.97;11.97;;;17.80;99.80;;;;;;6109862;23;20446;-88
2021/07/25 00:27:52;;;;;;;14.93;10.70;;;17.80;99.80;;;;;;6107361;23;20480;-88
2021/07/25 00:30:21;;;;;;;13.60;10.40;;;17.90;99.80;;;;;;6103426;23;20437;-87
2021/07/25 00:32:49;;;;;;;19.93;10.90;;;17.90;99.80;;;;;;6104979;23;20434;-88
2021/07/25 00:35:18;;;;;;;14.40;11.20;;;17.90;99.80;;;;;;6100669;23;20435;-88
2021/07/25 00:37:47;;;;;;;14.80;10.73;;;17.90;99.80;;;;;;6105891;23;20445;-88
2021/07/25 00:40:26;;;;;;;18.20;11.97;;;17.90;99.80;;;;;;6110346;23;20439;-88
2021/07/25 00:42:54;;;;;;;17.50;13.10;;;17.90;99.80;;;;;;6108503;23;20434;-88
2021/07/25 00:45:22;;;;;;;17.90;12.07;;;18.00;99.80;;;;;;6110124;23;20438;-88
2021/07/25 00:47:50;;;;;;;17.10;13.30;;;17.90;99.80;;;;;;6110618;23;20449;-89
2021/07/25 00:50:21;;;;;;;17.23;12.47;;;17.90;99.80;;;;;;6115085;23;20522;-88
2021/07/25 00:52:49;;;;;;;16.90;12.87;;;17.90;99.80;;;;;;6112057;23;20444;-87
2021/07/25 00:55:20;;;;;;;20.60;13.27;;;17.90;99.80;;;;;;6104240;23;20456;-88
2021/07/25 00:57:48;;;;;;;16.47;12.03;;;17.90;99.80;;;;;;6090583;23;20445;-88
2021/07/25 01:00:17;;;;;;;16.43;12.97;;;18.00;99.80;;;;;;6085995;23;20513;-88
2021/07/25 01:02:54;;;;;;;19.23;13.30;;;18.00;99.80;;;;;;6118701;23;20434;-88
2021/07/25 01:05:31;;;;;;;16.57;12.10;;;18.00;99.80;;;;;;6108798;23;20875;-88
2021/07/25 01:08:08;;;;;;;17.90;13.17;;;18.00;99.80;;;;;;6111402;23;20434;-88
2021/07/25 01:10:40;;;;;;;23.77;14.83;;;18.00;99.80;;;;;;6109298;23;20434;-88
2021/07/25 01:13:12;;;;;;;19.27;13.47;;;18.00;99.80;;;;;;6101235;23;20917;-88
2021/07/25 01:15:41;;;;;;;17.13;12.20;;;18.10;99.80;;;;;;6094753;23;20449;-88
2021/07/25 01:18:09;;;;;;;18.70;12.67;;;18.10;99.80;;;;;;6107508;23;20459;-88
2021/07/25 01:20:38;;;;;;;19.17;13.43;;;18.10;99.80;;;;;;6112722;23;20439;-88
2021/07/25 01:23:06;;;;;;;17.00;12.50;;;18.10;99.80;;;;;;6113706;23;20779;-88
2021/07/25 01:25:35;;;;;;;23.03;13.10;;;18.20;99.80;;;;;;6113096;23;20450;-87
2021/07/25 01:28:06;;;;;;;18.87;12.90;;;18.20;99.80;;;;;;6104342;23;21106;-87
2021/07/25 01:30:37;;;;;;;17.37;12.57;;;18.30;99.80;;;;;;6107949;23;20434;-88
2021/07/25 01:33:10;;;;;;;15.33;12.63;;;18.30;99.80;;;;;;6107738;23;20439;-88
2021/07/25 01:35:41;;;;;;;20.20;12.73;;;18.30;99.80;;;;;;6110435;23;20477;-87
2021/07/25 01:38:09;;;;;;;21.30;13.20;;;18.20;99.80;;;;;;6107156;23;20439;-88
2021/07/25 01:40:37;;;;;;;15.80;12.07;;;18.20;99.80;;;;;;6104146;23;20447;-89
2021/07/25 01:43:07;;;;;;;16.70;12.30;;;18.10;99.80;;;;;;6110776;23;20444;-88
2021/07/25 01:45:35;;;;;;;17.43;13.23;;;18.20;99.80;;;;;;6104979;23;20439;-88
2021/07/25 01:48:04;;;;;;;17.53;13.50;;;18.00;99.80;;;;;;6110799;23;20758;-88
2021/07/25 01:50:32;;;;;;;16.33;11.60;;;18.10;99.80;;;;;;6114118;23;20441;-88
2021/07/25 01:53:01;;;;;;;19.00;13.43;;;18.00;99.80;;;;;;6116448;23;20914;-88
2021/07/25 01:55:29;;;;;;;20.00;12.67;;;17.90;99.80;;;;;;6114386;23;20446;-88
2021/07/25 01:57:57;;;;;;;18.10;12.17;;;17.90;99.80;;;;;;6105168;23;20457;-88
2021/07/25 02:00:25;;;;;;;17.27;12.37;;;17.90;99.80;;;;;;6086912;23;20957;-88
2021/07/25 02:02:53;;;;;;;18.33;12.40;;;17.80;99.80;;;;;;6135481;23;20418;-88
2021/07/25 02:05:21;;;;;;;21.03;13.10;;;17.80;99.80;;;;;;6123982;23;20440;-90
2021/07/25 02:07:49;;;;;;;14.97;12.27;;;17.80;99.80;;;;;;6122950;23;20414;-88
2021/07/25 02:10:19;;;;;;;18.73;13.90;;;17.70;99.80;;;;;;6123477;23;20396;-88
2021/07/25 02:12:46;;;;;;;23.50;15.83;;;17.70;99.80;;;;;;6123747;23;20428;-88
2021/07/25 02:15:15;;;;;;;21.23;13.67;;;17.70;99.80;;;;;;6123810;23;20506;-88
2021/07/25 02:17:43;;;;;;;20.10;13.27;;;17.70;99.80;;;;;;6122495;23;20414;-88
2021/07/25 02:20:12;;;;;;;23.63;15.20;;;17.70;99.80;;;;;;6121903;23;20422;-88
2021/07/25 02:22:40;;;;;;;24.10;15.50;;;17.60;99.80;;;;;;6122085;23;20882;-88
2021/07/25 02:25:08;;;;;;;21.43;15.10;;;17.60;99.80;;;;;;6122471;23;20421;-88
2021/07/25 02:27:38;;;;;;;21.70;15.63;;;17.50;99.80;;;;;;6122035;23;20421;-88
2021/07/25 02:30:07;;;;;;;20.93;15.60;;;17.50;99.80;;;;;;6122619;23;21157;-88
2021/07/25 02:32:35;;;;;;;19.43;13.83;;;17.50;99.80;;;;;;6121889;23;20417;-87
2021/07/25 02:35:03;;;;;;;22.13;14.47;;;17.50;99.80;;;;;;6062223;23;20450;-88
2021/07/25 02:37:31;;;;;;;24.83;15.73;;;17.50;99.80;;;;;;6110477;23;20443;-88
2021/07/25 02:39:59;;;;;;;19.17;14.07;;;17.40;99.80;;;;;;6110759;23;20438;-88
2021/07/25 02:42:27;;;;;;;22.30;15.00;;;17.40;99.80;;;;;;6107752;23;20445;-87
2021/07/25 02:44:56;;;;;;;19.90;14.00;;;17.40;99.80;;;;;;6107841;23;20453;-88
2021/07/25 02:47:24;;;;;;;22.00;14.90;;;17.40;99.80;;;;;;6089614;23;20439;-88
2021/07/25 02:49:52;;;;;;;24.60;15.47;;;17.40;99.80;;;;;;6108994;23;20448;-87
2021/07/25 02:52:20;;;;;;;15.50;13.27;;;17.40;99.80;;;;;;6106678;23;20441;-88
2021/07/25 02:54:48;;;;;;;23.50;16.20;;;17.40;99.80;;;;;;6104626;23;20449;-88
2021/07/25 02:57:16;;;;;;;31.93;15.90;;;17.40;99.80;;;;;;6112862;23;20441;-88
2021/07/25 02:59:44;;;;;;;18.43;14.03;;;17.40;99.80;;;;;;6097835;23;20442;-88
2021/07/25 03:02:14;;;;;;;25.63;16.20;;;17.50;99.80;;;;;;6102883;23;20441;-88
2021/07/25 03:04:42;;;;;;;17.20;13.50;;;17.50;99.80;;;;;;6116309;23;20442;-88
2021/07/25 03:07:10;;;;;;;21.73;15.03;;;17.60;99.80;;;;;;6115659;23;20760;-88
2021/07/25 03:09:38;;;;;;;29.70;15.30;;;17.60;99.80;;;;;;6109434;23;20444;-87
2021/07/25 03:12:06;;;;;;;22.83;15.70;;;17.60;99.80;;;;;;6107392;23;21261;-88
2021/07/25 03:14:34;;;;;;;22.93;16.00;;;17.70;99.80;;;;;;6111980;23;20445;-87
2021/07/25 03:17:03;;;;;;;20.77;15.40;;;17.70;99.80;;;;;;6103627;23;20493;-88
2021/07/25 03:19:33;;;;;;;23.20;16.53;;;17.70;99.80;;;;;;6111840;23;20445;-88
2021/07/25 03:22:04;;;;;;;32.30;16.27;;;17.70;99.80;;;;;;6104463;23;20530;-88
2021/07/25 03:24:32;;;;;;;21.03;14.90;;;17.70;99.80;;;;;;6103917;23;20475;-88
2021/07/25 03:27:00;;;;;;;23.13;15.40;;;17.70;99.80;;;;;;6108670;23;20438;-88
2021/07/25 03:29:27;;;;;;;22.90;15.60;;;17.70;99.80;;;;;;6101843;23;20966;-88
2021/07/25 03:31:56;;;;;;;19.73;14.90;;;17.70;99.80;;;;;;6107492;23;20480;-88
2021/07/25 03:34:24;;;;;;;20.30;15.10;;;17.70;99.80;;;;;;6117006;23;20435;-88
2021/07/25 03:36:53;;;;;;;19.80;14.20;;;17.60;99.80;;;;;;6111938;23;20453;-88
2021/07/25 03:39:21;;;;;;;22.77;15.13;;;17.60;99.80;;;;;;6114528;23;20445;-88
2021/07/25 03:41:50;;;;;;;27.40;15.30;;;17.50;99.80;;;;;;6112212;23;20443;-88
2021/07/25 03:44:18;;;;;;;20.00;14.97;;;17.50;99.80;;;;;;6097110;23;20438;-88
2021/07/25 03:46:46;;;;;;;19.33;13.90;;;17.50;99.80;;;;;;6108749;23;20788;-87
2021/07/25 03:49:14;;;;;;;21.93;15.30;;;17.40;99.80;;;;;;6116775;23;20443;-88
2021/07/25 03:51:42;;;;;;;22.40;15.40;;;17.40;99.80;;;;;;6104238;23;20444;-88
2021/07/25 03:54:12;;;;;;;22.33;14.50;;;17.40;99.80;;;;;;6104016;23;20450;-88
2021/07/25 03:56:40;;;;;;;18.90;13.43;;;17.40;99.80;;;;;;6098766;23;20448;-88
2021/07/25 03:59:08;;;;;;;20.07;14.00;;;17.40;99.80;;;;;;6094158;23;20478;-88
2021/07/25 04:01:36;;;;;;;24.63;15.13;;;17.40;99.80;;;;;;6087504;23;20454;-88
2021/07/25 04:04:04;;;;;;;20.97;15.00;;;17.40;99.80;;;;;;6111354;23;20485;-88
2021/07/25 04:06:32;;;;;;;25.80;14.60;;;17.40;99.80;;;;;;6114026;23;20437;-87
2021/07/25 04:09:01;;;;;;;19.77;14.53;;;17.40;99.80;;;;;;6115513;23;20458;-87
2021/07/25 04:11:30;;;;;;;24.93;15.37;;;17.50;99.80;;;;;;6111560;23;20446;-87
2021/07/25 04:13:58;;;;;;;21.43;14.93;;;17.50;99.80;;;;;;6086689;23;20447;-87
2021/07/25 04:16:26;;;;;;;20.43;14.67;;;17.50;99.80;;;;;;6087276;23;20464;-87
2021/07/25 04:18:54;;;;;;;22.90;14.60;;;17.60;99.80;;;;;;6096517;23;20898;-86
2021/07/25 04:21:22;;;;;;;18.70;14.73;;;17.60;99.80;;;;;;6115066;23;20435;-87
2021/07/25 04:23:50;;;;;;;20.87;14.60;;;17.70;99.80;;;;;;6087029;23;20450;-87
2021/07/25 04:26:18;;;;;;;24.87;14.13;;;17.70;99.80;;;;;;6077962;23;20446;-87
2021/07/25 04:28:48;;;;;;;23.80;13.47;;;17.70;99.80;;;;;;6091042;23;20449;-87
2021/07/25 04:31:17;;;;;;;18.27;13.50;;;17.70;99.80;;;;;;6086607;23;20441;-87
2021/07/25 04:33:45;;;;;;;30.43;15.17;;;17.80;99.80;;;;;;6085634;23;20447;-87
2021/07/25 04:36:24;;;;;;;20.57;13.53;;;17.80;99.80;;;;;;6101537;23;20777;-87
2021/07/25 04:38:52;;;;;;;30.37;13.83;;;17.80;99.80;;;;;;6081776;23;20946;-87
2021/07/25 04:41:22;;;;;;;19.90;13.50;;;17.80;99.80;;;;;;6107176;23;20473;-87
2021/07/25 04:43:59;;;;;;;21.37;13.87;;;17.80;99.80;;;;;;6088952;23;21106;-87
2021/07/25 04:46:29;;;;;;;21.70;15.40;;;17.90;99.80;;;;;;6086393;23;20438;-86
2021/07/25 04:49:03;;;;;;;18.60;14.10;;;17.90;99.80;;;;;;6116845;23;21248;-87
2021/07/25 04:51:32;;;;;;;23.80;13.93;;;17.90;99.80;;;;;;6113436;23;20441;-87
2021/07/25 04:54:06;;;;;;;27.80;16.37;;;17.90;99.80;;;;;;6107849;23;20439;-87
2021/07/25 04:56:43;;;;;;;25.87;13.60;;;18.00;99.80;;;;;;6083571;23;20444;-87
2021/07/25 04:59:19;;;;;;;22.00;15.03;;;17.90;99.80;;;;;;6094090;23;20430;-87
2021/07/25 05:01:48;;;;;;;22.00;14.60;;;18.00;99.80;;;;;;6101048;23;20971;-87
2021/07/25 05:04:21;;;;;;;19.37;13.93;;;18.00;99.80;;;;;;6111451;23;20500;-87
2021/07/25 05:06:50;;;;;;;21.80;15.60;;;18.00;99.80;;;;;;6106614;23;20427;-87
2021/07/25 05:09:18;;;;;;;24.17;14.73;;;18.00;99.80;;;;;;6101597;23;20434;-87
2021/07/25 05:11:50;;;;;;;27.10;17.20;;;18.00;99.80;;;;;;6105408;23;20449;-87
2021/07/25 05:14:22;;;;;;;27.43;14.97;;;18.00;99.80;;;;;;6105169;23;20434;-87
2021/07/25 05:17:01;;;;;;;22.63;15.77;;;18.10;99.80;;;;;;6102652;23;20435;-88
2021/07/25 05:19:47;;;;;;;18.90;14.83;;;18.10;99.80;;;;;;6113971;23;20430;-87
2021/07/25 05:22:24;;;;;;;29.43;16.13;;;18.10;99.80;;;;;;6114794;23;20445;-87
2021/07/25 05:24:54;;;;;;;24.17;15.30;;;18.20;99.80;;;;;;6109158;23;20438;-87
2021/07/25 05:27:23;;;;;;;20.03;14.17;;;18.20;99.80;;;;;;6107913;23;20434;-86
2021/07/25 05:29:53;;;;;;;25.83;17.30;;;18.30;99.80;;;;;;6106005;23;20451;-87
2021/07/25 05:32:21;;;;;;;25.03;16.60;;;18.40;99.80;;;;;;6103664;23;20809;-87
2021/07/25 05:34:50;;;;;;;25.67;15.90;;;18.40;99.80;;;;;;6114738;23;20438;-87
2021/07/25 05:37:17;;;;;;;20.80;14.53;;;18.40;99.80;;;;;;6107596;23;20435;-87
2021/07/25 05:39:45;;;;;;;20.57;13.80;;;18.40;99.80;;;;;;6100850;23;20439;-87
2021/07/25 05:42:13;;;;;;;19.80;14.40;;;18.40;99.80;;;;;;6108814;23;20444;-86
2021/07/25 05:44:41;;;;;;;22.90;13.20;;;18.40;99.80;;;;;;6094752;23;20449;-87
2021/07/25 05:47:11;;;;;;;20.23;14.57;;;18.40;99.80;;;;;;6108666;23;20452;-86
2021/07/25 05:49:38;;;;;;;23.60;15.50;;;18.40;99.80;;;;;;6114501;23;20461;-87
2021/07/25 05:52:07;;;;;;;31.63;17.90;;;18.50;99.80;;;;;;6115021;23;20502;-87
2021/07/25 05:54:35;;;;;;;29.60;17.40;;;18.70;99.80;;;;;;6113829;23;20449;-87
2021/07/25 05:57:03;;;;;;;40.63;17.83;;;18.70;99.80;;;;;;6106286;23;20435;-87
2021/07/25 05:59:31;;;;;;;29.80;18.40;;;18.70;99.80;;;;;;6088291;23;20446;-87
2021/07/25 06:02:03;;;;;;;29.27;18.40;;;18.60;99.80;;;;;;6096026;23;20434;-87
2021/07/25 06:04:32;;;;;;;31.60;18.10;;;18.70;99.80;;;;;;6108727;23;20514;-87
2021/07/25 06:07:01;;;;;;;31.17;19.30;;;18.70;99.80;;;;;;6109469;23;20442;-87
2021/07/25 06:09:29;;;;;;;39.50;19.87;;;18.70;99.80;;;;;;6108010;23;20441;-87
2021/07/25 06:11:58;;;;;;;35.67;20.90;;;18.70;99.80;;;;;;6106873;23;20446;-88
2021/07/25 06:14:26;;;;;;;41.00;20.50;;;18.80;99.80;;;;;;6099464;23;20461;-87
2021/07/25 06:16:54;;;;;;;41.07;21.23;;;18.80;99.80;;;;;;6106316;23;20465;-88
2021/07/25 06:19:22;;;;;;;34.43;19.83;;;18.90;99.80;;;;;;6103524;23;20449;-87
2021/07/25 06:21:52;;;;;;;31.13;18.90;;;19.00;99.80;;;;;;6103101;23;20503;-87
2021/07/25 06:24:20;;;;;;;32.97;20.00;;;19.00;99.80;;;;;;6109335;23;20442;-87
2021/07/25 06:26:49;;;;;;;31.50;19.40;;;19.10;99.80;;;;;;6112630;23;20535;-87
2021/07/25 06:29:17;;;;;;;35.50;20.20;;;19.20;99.80;;;;;;6111757;23;20431;-87
2021/07/25 06:31:45;;;;;;;36.13;20.50;;;19.30;99.80;;;;;;6109563;23;20443;-87
2021/07/25 06:34:13;;;;;;;36.80;21.00;;;19.30;99.80;;;;;;6114118;23;20445;-87
2021/07/25 06:36:41;;;;;;;34.37;20.90;;;19.50;99.80;;;;;;6116089;23;20445;-87
2021/07/25 06:39:10;;;;;;;37.90;21.10;;;19.70;99.80;;;;;;6108936;23;20438;-88
2021/07/25 06:41:38;;;;;;;37.87;20.30;;;19.90;99.80;;;;;;6084822;23;20438;-87
2021/07/25 06:44:06;;;;;;;36.60;19.63;;;20.00;99.80;;;;;;6104125;23;20485;-87
2021/07/25 06:46:34;;;;;;;36.60;20.17;;;20.00;99.80;;;;;;6107850;23;20434;-87
2021/07/25 06:49:02;;;;;;;35.27;20.87;;;20.00;99.80;;;;;;6101403;23;20493;-87
2021/07/25 06:51:30;;;;;;;35.57;21.93;;;20.00;99.80;;;;;;6104509;23;21046;-86
2021/07/25 06:53:59;;;;;;;32.83;18.70;;;20.10;99.80;;;;;;6101469;23;20450;-87
2021/07/25 06:56:29;;;;;;;27.93;18.70;;;20.10;99.80;;;;;;6095705;23;20438;-88
2021/07/25 06:58:56;;;;;;;26.97;18.27;;;20.20;99.80;;;;;;6086274;23;20450;-89
2021/07/25 07:01:27;;;;;;;29.67;18.67;;;20.20;99.80;;;;;;6088277;23;21029;-85
2021/07/25 07:03:55;;;;;;;28.43;17.40;;;20.20;99.80;;;;;;6126965;23;20441;-85
2021/07/25 07:06:23;;;;;;;26.33;18.10;;;20.30;99.80;;;;;;6115137;23;20446;-86
2021/07/25 07:08:51;;;;;;;29.87;18.10;;;20.40;99.80;;;;;;6112257;23;20449;-86
2021/07/25 07:11:19;;;;;;;25.70;16.90;;;20.50;99.80;;;;;;6107540;23;21129;-86
2021/07/25 07:13:48;;;;;;;26.10;17.47;;;20.70;99.80;;;;;;6106691;23;20439;-86
2021/07/25 07:16:16;;;;;;;22.73;14.10;;;20.90;99.80;;;;;;6100375;23;20517;-85
2021/07/25 07:18:44;;;;;;;26.30;16.03;;;21.00;99.80;;;;;;6113986;23;20435;-86
2021/07/25 07:21:12;;;;;;;27.50;15.87;;;21.20;99.80;;;;;;6104697;23;20442;-86
2021/07/25 07:23:40;;;;;;;18.20;13.00;;;21.30;99.80;;;;;;6092780;23;20449;-86
2021/07/25 07:26:08;;;;;;;22.33;16.07;;;21.40;99.80;;;;;;6108239;23;20940;-86
2021/07/25 07:28:37;;;;;;;20.50;13.43;;;21.30;99.80;;;;;;6095393;23;20449;-86
2021/07/25 07:31:06;;;;;;;14.70;11.33;;;21.10;99.80;;;;;;6103540;23;20944;-85
2021/07/25 07:33:34;;;;;;;12.57;10.23;;;21.10;99.80;;;;;;6114550;23;20438;-87
2021/07/25 07:36:02;;;;;;;13.87;10.10;;;21.00;99.80;;;;;;6114008;23;20447;-86
2021/07/25 07:38:30;;;;;;;15.83;11.20;;;21.00;99.80;;;;;;6111768;23;20446;-86
2021/07/25 07:40:58;;;;;;;13.90;9.47;;;21.00;99.80;;;;;;6114758;23;20439;-85
2021/07/25 07:43:26;;;;;;;12.33;9.73;;;21.00;99.80;;;;;;6102457;23;20443;-86
2021/07/25 07:45:54;;;;;;;15.67;10.37;;;21.00;99.80;;;;;;6104590;23;20609;-86
2021/07/25 07:48:25;;;;;;;20.57;11.90;;;21.00;99.80;;;;;;6108705;23;20438;-87
2021/07/25 07:50:53;;;;;;;14.10;10.80;;;21.00;99.80;;;;;;6113209;23;20440;-86
2021/07/25 07:53:21;;;;;;;19.43;11.70;;;21.00;99.80;;;;;;6107866;23;20445;-86
2021/07/25 07:55:49;;;;;;;13.60;11.70;;;21.00;99.80;;;;;;6107198;23;20449;-86
2021/07/25 07:58:17;;;;;;;18.33;12.17;;;21.00;99.80;;;;;;6100526;23;20467;-86
2021/07/25 08:00:45;;;;;;;16.67;12.50;;;21.10;99.80;;;;;;6086070;23;20814;-86
2021/07/25 08:03:13;;;;;;;15.27;12.13;;;21.10;99.80;;;;;;6119443;23;20439;-86
2021/07/25 08:05:43;;;;;;;19.67;13.87;;;21.30;99.80;;;;;;6110420;23;20446;-86
2021/07/25 08:08:11;;;;;;;21.90;15.17;;;21.30;99.80;;;;;;6111794;23;21191;-86
2021/07/25 08:10:39;;;;;;;20.87;14.20;;;21.40;99.80;;;;;;6115092;23;20439;-86
2021/07/25 08:13:07;;;;;;;20.70;13.87;;;21.40;99.80;;;;;;6104395;23;20439;-86
2021/07/25 08:15:35;;;;;;;20.10;13.43;;;21.50;99.80;;;;;;6109241;23;20470;-85
2021/07/25 08:18:04;;;;;;;16.70;12.90;;;21.50;99.80;;;;;;6109198;23;20451;-85
2021/07/25 08:20:32;;;;;;;21.20;15.17;;;21.50;99.80;;;;;;6112817;23;20443;-87
2021/07/25 08:23:01;;;;;;;26.43;17.30;;;21.60;99.80;;;;;;6108142;23;20444;-86
2021/07/25 08:25:29;;;;;;;21.93;15.77;;;21.60;99.80;;;;;;6098168;23;20449;-86
2021/07/25 08:27:57;;;;;;;21.00;15.67;;;21.60;99.80;;;;;;6108956;23;20518;-87
2021/07/25 08:30:25;;;;;;;18.67;13.50;;;21.60;99.80;;;;;;6107860;23;20445;-86
2021/07/25 08:32:53;;;;;;;18.27;12.63;;;21.60;99.80;;;;;;6097883;23;20459;-85
2021/07/25 08:35:21;;;;;;;19.07;13.70;;;21.70;99.80;;;;;;6107060;23;20449;-86
2021/07/25 08:37:49;;;;;;;22.60;15.33;;;21.80;99.80;;;;;;6105729;23;20749;-86
2021/07/25 08:40:23;;;;;;;23.50;15.93;;;21.90;99.80;;;;;;6094810;23;20961;-86
2021/07/25 08:43:04;;;;;;;22.20;15.37;;;22.20;99.80;;;;;;6104509;23;20444;-86
2021/07/25 08:45:32;;;;;;;25.17;16.10;;;22.40;99.80;;;;;;6097184;23;20450;-86
2021/07/25 08:48:04;;;;;;;21.10;14.90;;;22.60;99.80;;;;;;6105383;23;20449;-87
2021/07/25 08:50:33;;;;;;;17.30;13.43;;;22.70;99.80;;;;;;6115118;23;20431;-87
2021/07/25 08:53:04;;;;;;;21.27;14.13;;;22.80;99.80;;;;;;6111750;23;20525;-87
2021/07/25 08:55:34;;;;;;;20.90;13.23;;;22.90;99.80;;;;;;6109212;23;20442;-87
2021/07/25 08:58:08;;;;;;;21.10;13.73;;;23.00;99.80;;;;;;6103523;23;20451;-87
2021/07/25 09:00:36;;;;;;;19.83;13.90;;;23.20;99.80;;;;;;6092243;23;20446;-87
2021/07/25 09:03:06;;;;;;;16.33;13.63;;;23.30;99.80;;;;;;6078250;23;20447;-87
2021/07/25 09:05:36;;;;;;;20.70;13.10;;;23.40;99.80;;;;;;6083446;23;20447;-87
2021/07/25 09:08:05;;;;;;;15.27;11.90;;;23.30;99.80;;;;;;6084975;23;20449;-87
2021/07/25 09:10:35;;;;;;;13.40;10.83;;;23.30;99.80;;;;;;6106183;23;20433;-87
2021/07/25 09:13:03;;;;;;;15.80;11.43;;;23.30;99.80;;;;;;6091084;23;20443;-87
2021/07/25 09:15:33;;;;;;;17.00;12.97;;;23.40;99.80;;;;;;6103944;23;21361;-87
2021/07/25 09:18:02;;;;;;;16.50;10.93;;;23.50;99.80;;;;;;6104148;23;20443;-87
2021/07/25 09:20:32;;;;;;;17.43;12.27;;;23.70;99.80;;;;;;6110822;23;20445;-86
2021/07/25 09:23:12;;;;;;;21.40;11.33;;;24.20;99.80;;;;;;6113639;23;20439;-87
2021/07/25 09:25:45;;;;;;;14.33;10.73;;;24.40;99.80;;;;;;6110777;23;20538;-88
2021/07/25 09:28:30;;;;;;;14.93;10.97;;;24.20;99.80;;;;;;6088225;23;20438;-88
2021/07/25 09:31:11;;;;;;;13.80;10.13;;;24.10;99.80;;;;;;6107355;23;20522;-87
2021/07/25 09:33:43;;;;;;;13.13;10.50;;;24.20;99.80;;;;;;6107223;23;20434;-89
2021/07/25 09:36:14;;;;;;;11.70;9.83;;;24.30;99.80;;;;;;6100347;23;20441;-88
2021/07/25 09:38:44;;;;;;;16.20;10.83;;;24.40;99.80;;;;;;6091089;23;20469;-89
2021/07/25 09:41:22;;;;;;;12.27;10.00;;;24.40;99.80;;;;;;6073546;23;20463;-89
2021/07/25 09:43:59;;;;;;;11.77;9.40;;;24.60;99.80;;;;;;6084139;23;20451;-89
2021/07/25 09:46:28;;;;;;;12.17;9.73;;;24.70;99.80;;;;;;6073197;23;20430;-88
2021/07/25 09:48:57;;;;;;;12.10;10.53;;;24.70;99.80;;;;;;6121304;23;20454;-89
2021/07/25 09:51:25;;;;;;;10.77;9.27;;;24.50;99.80;;;;;;6114157;23;20445;-88
2021/07/25 09:53:54;;;;;;;12.47;10.40;;;24.40;99.80;;;;;;6110443;23;20446;-88
2021/07/25 09:56:28;;;;;;;10.37;8.87;;;24.50;99.80;;;;;;6110665;23;20442;-88
2021/07/25 09:58:57;;;;;;;11.33;8.03;;;24.80;99.80;;;;;;6103015;23;20442;-89
2021/07/25 10:01:35;;;;;;;10.03;7.30;;;25.00;99.80;;;;;;6058205;23;20437;-88
2021/07/25 10:04:23;;;;;;;8.43;7.60;;;25.20;99.80;;;;;;6113360;23;20456;-89
2021/07/25 10:06:53;;;;;;;8.33;7.50;;;25.40;99.80;;;;;;6099971;23;20476;-88
2021/07/25 10:09:22;;;;;;;8.00;7.30;;;25.50;99.40;;;;;;6084785;23;20451;-89
2021/07/25 10:11:55;;;;;;;8.63;7.27;;;25.50;98.40;;;;;;6083858;23;20452;-88
2021/07/25 10:14:23;;;;;;;8.37;7.57;;;25.50;99.80;;;;;;6086051;23;20468;-88
2021/07/25 10:16:53;;;;;;;8.43;7.27;;;25.60;99.80;;;;;;6071535;23;21086;-88
2021/07/25 10:19:27;;;;;;;9.10;7.73;;;25.70;98.50;;;;;;6104174;23;20473;-89
2021/07/25 10:21:57;;;;;;;7.97;7.27;;;25.70;98.30;;;;;;6092386;23;20437;-89
2021/07/25 10:24:26;;;;;;;6.63;6.03;;;25.60;96.70;;;;;;6072449;23;20492;-88
2021/07/25 10:26:56;;;;;;;10.07;7.20;;;25.60;99.10;;;;;;6092201;23;20445;-88
2021/07/25 10:29:25;;;;;;;7.50;6.77;;;25.80;96.70;;;;;;6081788;23;20435;-89
2021/07/25 10:31:53;;;;;;;9.03;5.60;;;26.10;95.10;;;;;;6087920;23;20501;-88
2021/07/25 10:34:22;;;;;;;8.13;5.83;;;26.30;96.80;;;;;;6111513;23;20499;-89
2021/07/25 10:36:51;;;;;;;6.10;5.50;;;26.40;94.40;;;;;;6110450;23;20448;-89
2021/07/25 10:39:20;;;;;;;7.00;5.90;;;26.60;94.20;;;;;;6100002;23;20511;-89
2021/07/25 10:41:51;;;;;;;5.60;5.10;;;26.70;95.80;;;;;;6075554;23;20446;-88
2021/07/25 10:44:22;;;;;;;8.27;5.53;;;26.80;92.70;;;;;;6071481;23;20454;-89
2021/07/25 10:46:50;;;;;;;6.90;5.87;;;26.90;92.00;;;;;;6084702;23;20443;-88
2021/07/25 10:49:19;;;;;;;7.47;6.63;;;26.80;92.20;;;;;;6121401;23;20927;-89
2021/07/25 10:52:10;;;;;;;9.53;6.63;;;26.70;91.40;;;;;;6078512;23;20453;-89
2021/07/25 10:54:48;;;;;;;7.33;6.63;;;26.80;93.20;;;;;;6050147;23;20435;-89
2021/07/25 10:57:17;;;;;;;6.17;5.67;;;27.00;93.70;;;;;;6092940;23;20803;-88
2021/07/25 10:59:50;;;;;;;6.73;6.03;;;27.00;93.90;;;;;;6084721;23;20435;-88
2021/07/25 11:02:52;;;;;;;9.70;6.57;;;27.00;91.60;;;;;;6085622;23;20438;-88
2021/07/25 11:05:21;;;;;;;6.30;5.70;;;27.20;93.50;;;;;;6111517;23;20830;-89
2021/07/25 11:07:59;;;;;;;7.27;6.30;;;27.30;92.10;;;;;;6113539;23;20521;-89
2021/07/25 11:10:35;;;;;;;5.93;5.33;;;27.50;88.70;;;;;;6101104;23;21182;-89
2021/07/25 11:13:12;;;;;;;6.60;5.53;;;27.50;89.60;;;;;;6088291;23;20497;-89
2021/07/25 11:15:41;;;;;;;6.17;5.57;;;27.50;87.80;;;;;;6090013;23;20771;-89
2021/07/25 11:18:11;;;;;;;5.83;5.33;;;27.60;88.60;;;;;;6100203;23;20435;-90
2021/07/25 11:20:56;;;;;;;8.77;6.10;;;27.50;88.90;;;;;;6116000;23;20435;-89
2021/07/25 11:23:35;;;;;;;5.40;4.90;;;27.60;89.00;;;;;;6089481;23;20501;-88
2021/07/25 11:26:33;;;;;;;6.23;5.57;;;27.90;89.00;;;;;;6099472;23;20442;-90
2021/07/25 11:29:09;;;;;;;6.73;4.93;;;27.90;87.00;;;;;;6085954;23;21015;-88
2021/07/25 11:31:44;;;;;;;5.43;5.00;;;28.10;89.70;;;;;;6088296;23;20435;-89
2021/07/25 11:34:25;;;;;;;5.07;4.63;;;28.20;87.30;;;;;;6114127;23;20481;-89
2021/07/25 11:36:55;;;;;;;6.17;5.60;;;28.50;89.30;;;;;;6112260;23;20449;-89
2021/07/25 11:39:23;;;;;;;4.27;3.87;;;;;;;;;;6115254;23;20528;-89
2021/07/25 11:41:51;;;;;;;6.20;5.03;;;28.80;86.10;;;;;;6114397;23;20450;-88
2021/07/25 11:44:26;;;;;;;4.97;4.13;;;29.00;86.40;;;;;;6087251;23;20450;-89
2021/07/25 11:46:56;;;;;;;5.30;4.80;;;29.30;85.70;;;;;;6074059;23;20457;-88
2021/07/25 11:49:25;;;;;;;4.10;3.77;;;29.60;85.80;;;;;;6124027;23;20450;-89
2021/07/25 11:51:57;;;;;;;5.67;4.53;;;29.90;83.30;;;;;;6110102;23;20442;-88
2021/07/25 11:54:27;;;;;;;4.57;4.20;;;30.20;83.00;;;;;;6086862;23;20909;-87
2021/07/25 11:57:06;;;;;;;4.90;4.30;;;30.40;82.30;;;;;;6098495;23;20924;-88
2021/07/25 11:59:36;;;;;;;4.97;4.57;;;30.10;82.60;;;;;;6085500;23;20497;-88
2021/07/25 12:02:08;;;;;;;6.67;3.33;;;30.00;79.50;;;;;;6069142;23;20443;-87
2021/07/25 12:04:40;;;;;;;3.07;2.87;;;29.90;77.30;;;;;;6085901;23;20513;-88
2021/07/25 12:07:12;;;;;;;3.73;3.43;;;30.00;80.40;;;;;;6069626;23;20450;-89
2021/07/25 12:09:44;;;;;;;4.03;3.63;;;30.20;78.60;;;;;;6086279;23;20462;-89
2021/07/25 12:12:15;;;;;;;3.90;3.33;;;31.20;76.10;;;;;;6086298;23;20813;-90
2021/07/25 12:14:47;;;;;;;3.47;3.20;;;33.30;70.00;;;;;;6071298;23;20936;-89
2021/07/25 12:17:47;;;;;;;5.47;3.67;;;35.20;66.90;;;;;;6086953;23;20443;-90
2021/07/25 12:20:17;;;;;;;3.90;2.90;;;37.00;61.60;;;;;;6113161;23;20462;-90
2021/07/25 12:22:49;;;;;;;11.70;3.60;;;38.00;61.90;;;;;;6115075;23;20440;-90
2021/07/25 12:25:17;;;;;;;5.27;3.07;;;39.10;58.20;;;;;;6078761;23;20837;-91
2021/07/25 12:27:46;;;;;;;5.10;3.30;;;39.90;58.00;;;;;;6086195;23;20485;-91
2021/07/25 12:30:18;;;;;;;3.00;2.80;;;40.10;54.30;;;;;;6074098;23;20538;-91
2021/07/25 12:32:47;;;;;;;5.97;3.13;;;40.30;55.40;;;;;;6103203;23;20434;-90
2021/07/25 12:35:23;;;;;;;3.33;3.00;;;40.70;56.20;;;;;;6102429;23;20434;-91
2021/07/25 12:37:59;;;;;;;2.97;2.60;;;41.10;53.10;;;;;;6081438;23;20511;-91
2021/07/25 12:40:28;;;;;;;2.70;2.50;;;41.10;53.60;;;;;;6048044;23;20933;-89
2021/07/25 12:43:06;;;;;;;2.87;2.67;;;41.00;52.80;;;;;;6053925;23;20449;-89
2021/07/25 12:45:52;;;;;;;3.13;2.60;;;39.70;53.50;;;;;;6085346;23;20983;-90